createdAt,value
2023-05-21T00:01:25.671Z,10.10
2023-05-21T00:03:52.288Z,10.07
2023-05-21T00:06:21.288Z,10.88
2023-05-21T00:08:48.118Z,13.35
2023-05-21T00:11:14.603Z,10.40
2023-05-21T00:13:41.072Z,10.60
2023-05-21T00:16:11.428Z,10.80
2023-05-21T00:18:40.434Z,11.25
2023-05-21T00:21:06.992Z,12.57
2023-05-21T00:23:34.225Z,11.57
2023-05-21T00:26:01.517Z,11.15
2023-05-21T00:28:28.008Z,11.77
2023-05-21T00:30:54.739Z,11.30
2023-05-21T00:33:22.296Z,12.07
2023-05-21T00:35:48.758Z,11.82
2023-05-21T00:38:17.754Z,13.45
2023-05-21T00:40:45.023Z,10.90
2023-05-21T00:43:14.929Z,12.13
2023-05-21T00:45:46.828Z,11.00
2023-05-21T00:48:14.805Z,12.80
2023-05-21T00:50:43.526Z,10.90
2023-05-21T00:53:10.809Z,11.70
2023-05-21T00:55:39.805Z,11.05
2023-05-21T00:58:07.381Z,11.50
2023-05-21T01:00:34.954Z,11.75
2023-05-21T01:03:05.196Z,11.93
2023-05-21T01:05:33.197Z,10.35
2023-05-21T01:08:00.495Z,12.07
2023-05-21T01:10:27.774Z,12.18
2023-05-21T01:12:57.717Z,11.77
2023-05-21T01:15:24.654Z,11.80
2023-05-21T01:17:52.040Z,13.93
2023-05-21T01:20:20.544Z,11.30
2023-05-21T01:22:55.445Z,11.90
2023-05-21T01:25:23.476Z,11.93
2023-05-21T01:27:50.944Z,11.70
2023-05-21T01:30:18.592Z,12.00
2023-05-21T01:32:55.019Z,13.50
2023-05-21T01:35:27.180Z,12.68
2023-05-21T01:38:29.725Z,11.48
2023-05-21T01:41:05.067Z,13.43
2023-05-21T01:43:39.076Z,11.95
2023-05-21T01:46:07.769Z,10.80
2023-05-21T01:48:35.321Z,13.05
2023-05-21T01:51:04.951Z,12.23
2023-05-21T01:53:34.248Z,12.70
2023-05-21T01:56:00.889Z,14.25
2023-05-21T01:58:27.334Z,11.55
2023-05-21T02:00:53.862Z,13.15
2023-05-21T02:03:22.572Z,11.88
2023-05-21T02:05:49.311Z,12.02
2023-05-21T02:08:15.813Z,14.73
2023-05-21T02:10:42.337Z,12.32
2023-05-21T02:13:09.091Z,12.05
2023-05-21T02:15:35.931Z,13.15
2023-05-21T02:18:03.965Z,11.50
2023-05-21T02:20:30.916Z,13.77
2023-05-21T02:22:57.458Z,13.95
2023-05-21T02:25:29.128Z,11.57
2023-05-21T02:27:56.784Z,11.68
2023-05-21T02:30:23.645Z,13.63
2023-05-21T02:32:51.000Z,12.20
2023-05-21T02:35:17.848Z,12.00
2023-05-21T02:37:44.703Z,12.50
2023-05-21T02:40:13.478Z,11.40
2023-05-21T02:42:41.894Z,14.00
2023-05-21T02:45:13.567Z,12.35
2023-05-21T02:47:41.373Z,13.00
2023-05-21T02:50:09.376Z,12.40
2023-05-21T02:52:36.663Z,12.68
2023-05-21T02:55:03.221Z,12.13
2023-05-21T02:57:29.765Z,13.48
2023-05-21T02:59:56.523Z,13.65
2023-05-21T03:02:26.300Z,16.27
2023-05-21T03:04:54.072Z,12.32
2023-05-21T03:07:20.750Z,13.32
2023-05-21T03:09:48.048Z,12.88
2023-05-21T03:12:15.310Z,17.73
2023-05-21T03:14:46.448Z,12.75
2023-05-21T03:17:17.320Z,15.35
2023-05-21T03:19:46.378Z,12.93
2023-05-21T03:22:12.889Z,12.95
2023-05-21T03:24:39.972Z,13.90
2023-05-21T03:27:06.808Z,15.50
2023-05-21T03:29:34.381Z,15.35
2023-05-21T03:32:01.536Z,14.05
2023-05-21T03:34:29.115Z,13.13
2023-05-21T03:36:55.644Z,15.43
2023-05-21T03:39:22.607Z,13.77
2023-05-21T03:41:49.118Z,12.35
2023-05-21T03:44:16.243Z,12.95
2023-05-21T03:46:43.048Z,13.05
2023-05-21T03:49:12.301Z,14.13
2023-05-21T03:51:39.638Z,13.15
2023-05-21T03:54:06.240Z,14.52
2023-05-21T03:56:33.741Z,13.43
2023-05-21T03:59:00.265Z,13.48
2023-05-21T04:01:28.291Z,12.90
2023-05-21T04:03:55.099Z,12.10
2023-05-21T04:06:23.091Z,12.55
2023-05-21T04:08:49.949Z,13.48
2023-05-21T04:11:17.826Z,13.63
2023-05-21T04:13:44.591Z,16.95
2023-05-21T04:16:14.915Z,15.75
2023-05-21T04:18:45.646Z,11.80
2023-05-21T04:21:12.749Z,15.95
2023-05-21T04:23:40.380Z,14.05
2023-05-21T04:26:07.709Z,13.10
2023-05-21T04:28:35.382Z,13.88
2023-05-21T04:31:02.229Z,15.05
2023-05-21T04:33:30.385Z,12.18
2023-05-21T04:35:57.905Z,13.00
2023-05-21T04:38:24.975Z,13.98
2023-05-21T04:40:52.333Z,13.15
2023-05-21T04:43:26.208Z,13.90
2023-05-21T04:45:55.067Z,12.63
2023-05-21T04:48:24.792Z,13.82
2023-05-21T04:50:53.251Z,14.75
2023-05-21T04:53:23.009Z,13.90
2023-05-21T04:55:50.943Z,13.85
2023-05-21T04:58:20.385Z,13.75
2023-05-21T05:00:49.438Z,15.23
2023-05-21T05:03:16.543Z,12.90
2023-05-21T05:05:43.342Z,14.65
2023-05-21T05:08:10.972Z,14.20
2023-05-21T05:10:37.926Z,12.90
2023-05-21T05:13:05.050Z,12.60
2023-05-21T05:15:32.136Z,12.57
2023-05-21T05:17:58.817Z,13.50
2023-05-21T05:20:31.188Z,14.10
2023-05-21T05:22:57.676Z,13.48
2023-05-21T05:25:24.437Z,13.93
2023-05-21T05:27:50.910Z,15.77
2023-05-21T05:30:17.649Z,12.70
2023-05-21T05:32:45.919Z,12.30
2023-05-21T05:35:12.821Z,14.32
2023-05-21T05:37:39.618Z,14.38
2023-05-21T05:40:07.591Z,12.82
2023-05-21T05:42:34.095Z,14.15
2023-05-21T05:45:00.870Z,12.23
2023-05-21T05:47:29.605Z,13.82
2023-05-21T05:49:56.431Z,13.55
2023-05-21T05:52:23.222Z,12.30
2023-05-21T05:54:49.981Z,12.90
2023-05-21T05:57:16.709Z,13.38
2023-05-21T05:59:43.520Z,14.60
2023-05-21T06:02:10.158Z,14.50
2023-05-21T06:04:36.869Z,13.15
2023-05-21T06:07:05.444Z,15.15
2023-05-21T06:09:37.298Z,14.20
2023-05-21T06:12:04.404Z,13.25
2023-05-21T06:14:31.099Z,12.48
2023-05-21T06:16:57.568Z,12.35
2023-05-21T06:19:24.524Z,13.25
2023-05-21T06:21:51.099Z,13.10
2023-05-21T06:24:17.882Z,13.85
2023-05-21T06:26:46.504Z,13.48
2023-05-21T06:29:15.750Z,13.25
2023-05-21T06:31:42.183Z,12.25
2023-05-21T06:34:09.380Z,12.35
2023-05-21T06:36:35.961Z,16.33
2023-05-21T06:39:04.413Z,14.57
2023-05-21T06:41:31.346Z,14.00
2023-05-21T06:43:58.068Z,12.43
2023-05-21T06:46:24.617Z,13.65
2023-05-21T06:48:51.217Z,15.90
2023-05-21T06:51:17.807Z,13.68
2023-05-21T06:53:44.853Z,15.18
2023-05-21T06:56:11.467Z,14.32
2023-05-21T06:58:38.193Z,13.93
2023-05-21T07:01:05.479Z,12.32
2023-05-21T07:03:32.082Z,12.95
2023-05-21T07:05:58.787Z,17.15
2023-05-21T07:08:25.626Z,13.20
2023-05-21T07:10:52.561Z,13.23
2023-05-21T07:13:19.092Z,14.40
2023-05-21T07:15:45.673Z,14.63
2023-05-21T07:18:12.451Z,15.82
2023-05-21T07:20:39.047Z,12.60
2023-05-21T07:23:05.524Z,13.50
2023-05-21T07:25:32.979Z,13.18
2023-05-21T07:27:59.928Z,13.25
2023-05-21T07:30:26.495Z,12.55
2023-05-21T07:32:53.088Z,12.88
2023-05-21T07:35:20.454Z,12.35
2023-05-21T07:37:47.854Z,13.25
2023-05-21T07:40:15.210Z,12.77
2023-05-21T07:42:41.755Z,14.75
2023-05-21T07:45:08.559Z,13.07
2023-05-21T07:47:35.315Z,12.65
2023-05-21T07:50:01.814Z,12.32
2023-05-21T07:52:28.283Z,12.50
2023-05-21T07:54:54.757Z,15.45
2023-05-21T07:57:23.706Z,14.13
2023-05-21T07:59:50.196Z,11.63
2023-05-21T08:02:16.972Z,11.68
2023-05-21T08:04:44.539Z,12.00
2023-05-21T08:07:11.039Z,12.82
2023-05-21T08:09:37.541Z,13.45
2023-05-21T08:12:04.391Z,12.38
2023-05-21T08:14:32.335Z,12.27
2023-05-21T08:17:01.447Z,11.88
2023-05-21T08:19:28.298Z,13.40
2023-05-21T08:21:55.140Z,11.18
2023-05-21T08:24:21.928Z,11.52
2023-05-21T08:26:50.658Z,11.77
2023-05-21T08:29:17.456Z,12.10
2023-05-21T08:31:44.253Z,12.23
2023-05-21T08:34:12.152Z,13.65
2023-05-21T08:36:38.809Z,12.48
2023-05-21T08:39:05.542Z,11.70
2023-05-21T08:41:35.924Z,10.10
2023-05-21T08:44:06.245Z,14.13
2023-05-21T08:46:36.899Z,11.70
2023-05-21T08:49:03.945Z,11.38
2023-05-21T08:51:31.419Z,10.95
2023-05-21T08:54:01.270Z,11.85
2023-05-21T08:56:31.431Z,14.45
2023-05-21T08:58:59.714Z,11.48
2023-05-21T09:01:27.231Z,13.27
2023-05-21T09:04:04.809Z,11.70
2023-05-21T09:06:36.720Z,11.60
2023-05-21T09:09:12.539Z,11.85
2023-05-21T09:11:39.393Z,10.55
2023-05-21T09:14:06.834Z,9.98
2023-05-21T09:16:33.344Z,12.98
2023-05-21T09:19:04.597Z,13.13
2023-05-21T09:21:31.753Z,10.52
2023-05-21T09:24:02.138Z,10.57
2023-05-21T09:26:28.651Z,10.13
2023-05-21T09:29:00.880Z,9.85
2023-05-21T09:31:27.826Z,10.02
2023-05-21T09:33:55.833Z,11.65
2023-05-21T09:36:22.777Z,9.68
2023-05-21T09:38:52.411Z,9.95
2023-05-21T09:41:32.727Z,10.57
2023-05-21T09:44:02.812Z,8.95
2023-05-21T09:46:42.592Z,10.02
2023-05-21T09:49:30.294Z,8.85
2023-05-21T09:52:00.312Z,9.23
2023-05-21T09:54:33.108Z,9.55
2023-05-21T09:57:03.382Z,10.35
2023-05-21T09:59:40.584Z,9.25
2023-05-21T10:02:37.934Z,9.80
2023-05-21T10:05:09.169Z,10.02
2023-05-21T10:07:41.701Z,10.85
2023-05-21T10:10:12.822Z,11.70
2023-05-21T10:12:44.885Z,8.63
2023-05-21T10:15:15.742Z,10.90
2023-05-21T10:17:44.513Z,8.98
2023-05-21T10:20:12.399Z,9.82
2023-05-21T10:22:39.982Z,8.25
2023-05-21T10:25:10.444Z,9.70
2023-05-21T10:27:37.906Z,8.73
2023-05-21T10:30:07.057Z,11.40
2023-05-21T10:32:33.849Z,13.23
2023-05-21T10:35:02.443Z,9.93
2023-05-21T10:37:29.797Z,9.52
2023-05-21T10:39:56.573Z,9.00
2023-05-21T10:43:02.494Z,9.95
2023-05-21T10:45:48.208Z,8.88
2023-05-21T10:48:39.613Z,7.60
2023-05-21T10:51:32.209Z,11.50
2023-05-21T10:54:39.451Z,7.65
2023-05-21T10:57:11.799Z,8.55
2023-05-21T10:59:44.022Z,8.75
2023-05-21T11:02:14.132Z,9.30
2023-05-21T11:04:43.257Z,7.93
2023-05-21T11:07:10.071Z,9.57
2023-05-21T11:09:37.827Z,8.43
2023-05-21T11:12:05.155Z,7.82
2023-05-21T11:14:43.556Z,11.75
2023-05-21T11:17:16.511Z,8.15
2023-05-21T11:19:47.316Z,11.02
2023-05-21T11:22:25.893Z,7.97
2023-05-21T11:25:02.125Z,9.43
2023-05-21T11:27:42.545Z,10.45
2023-05-21T11:30:18.964Z,12.10
2023-05-21T11:33:15.654Z,8.93
2023-05-21T11:35:49.079Z,7.88
2023-05-21T11:38:15.634Z,9.82
2023-05-21T11:41:05.768Z,10.15
2023-05-21T11:43:32.358Z,7.57
2023-05-21T11:46:00.862Z,8.52
2023-05-21T11:48:30.540Z,7.35
2023-05-21T11:50:58.586Z,7.88
2023-05-21T11:53:25.435Z,9.40
2023-05-21T11:55:57.350Z,7.95
2023-05-21T11:58:26.911Z,8.50
2023-05-21T12:00:53.512Z,7.85
2023-05-21T12:03:27.280Z,9.13
2023-05-21T12:05:54.422Z,11.82
2023-05-21T12:08:27.626Z,9.20
2023-05-21T12:11:02.222Z,11.30
2023-05-21T12:13:28.924Z,7.97
2023-05-21T12:15:56.190Z,9.18
2023-05-21T12:18:22.964Z,8.35
2023-05-21T12:20:52.291Z,9.18
2023-05-21T12:23:25.902Z,7.80
2023-05-21T12:25:56.829Z,7.60
2023-05-21T12:28:24.946Z,11.82
2023-05-21T12:30:52.401Z,8.43
2023-05-21T12:33:19.506Z,7.63
2023-05-21T12:35:50.354Z,9.75
2023-05-21T12:38:17.227Z,8.63
2023-05-21T12:40:45.656Z,8.93
2023-05-21T12:43:12.565Z,9.30
2023-05-21T12:45:39.713Z,7.78
2023-05-21T12:48:06.872Z,9.15
2023-05-21T12:50:33.924Z,8.93
2023-05-21T12:53:00.675Z,9.93
2023-05-21T12:55:27.204Z,8.27
2023-05-21T12:58:08.361Z,8.40
2023-05-21T13:00:35.817Z,8.05
2023-05-21T13:03:04.464Z,7.95
2023-05-21T13:05:31.728Z,7.47
2023-05-21T13:07:58.529Z,6.57
2023-05-21T13:10:27.453Z,7.90
2023-05-21T13:12:53.965Z,8.48
2023-05-21T13:15:20.862Z,7.18
2023-05-21T13:17:49.755Z,8.68
2023-05-21T13:20:34.053Z,8.32
2023-05-21T13:23:01.762Z,9.32
2023-05-21T13:25:30.232Z,7.72
2023-05-21T13:27:57.621Z,7.00
2023-05-21T13:30:24.114Z,7.30
2023-05-21T13:32:52.944Z,8.10
2023-05-21T13:35:19.935Z,8.15
2023-05-21T13:37:46.483Z,7.63
2023-05-21T13:40:15.266Z,7.43
2023-05-21T13:42:47.340Z,7.15
2023-05-21T13:45:16.311Z,7.07
2023-05-21T13:47:45.477Z,8.32
2023-05-21T13:50:12.859Z,6.40
2023-05-21T13:52:39.855Z,9.75
2023-05-21T13:55:06.792Z,7.38
2023-05-21T13:57:34.049Z,8.30
2023-05-21T14:00:01.047Z,6.82
2023-05-21T14:02:27.967Z,9.68
2023-05-21T14:04:55.235Z,8.23
2023-05-21T14:07:22.332Z,10.98
2023-05-21T14:09:49.787Z,7.50
2023-05-21T14:12:16.995Z,7.25
2023-05-21T14:14:43.857Z,6.63
2023-05-21T14:17:10.441Z,6.80
2023-05-21T14:19:36.992Z,8.00
2023-05-21T14:22:03.812Z,7.75
2023-05-21T14:24:30.364Z,8.38
2023-05-21T14:26:57.142Z,6.82
2023-05-21T14:29:23.934Z,6.78
2023-05-21T14:31:50.835Z,7.30
2023-05-21T14:34:17.956Z,7.45
2023-05-21T14:36:45.183Z,8.18
2023-05-21T14:39:11.706Z,7.28
2023-05-21T14:41:39.847Z,7.55
2023-05-21T14:44:06.893Z,6.75
2023-05-21T14:46:33.612Z,7.00
2023-05-21T14:49:00.710Z,6.95
2023-05-21T14:51:27.291Z,6.55
2023-05-21T14:53:53.883Z,7.13
2023-05-21T14:56:22.425Z,8.38
2023-05-21T14:58:48.974Z,6.85
2023-05-21T15:01:15.597Z,7.32
2023-05-21T15:03:42.445Z,7.03
2023-05-21T15:06:09.534Z,6.60
2023-05-21T15:08:36.390Z,9.00
2023-05-21T15:11:03.349Z,6.80
2023-05-21T15:13:31.320Z,8.90
2023-05-21T15:16:00.305Z,6.55
2023-05-21T15:18:26.874Z,7.07
2023-05-21T15:20:53.381Z,6.70
2023-05-21T15:23:20.086Z,7.15
2023-05-21T15:25:46.870Z,7.00
2023-05-21T15:28:13.854Z,7.53
2023-05-21T15:30:40.621Z,7.70
2023-05-21T15:33:07.375Z,8.20
2023-05-21T15:35:36.466Z,7.68
2023-05-21T15:38:04.585Z,8.20
2023-05-21T15:40:32.066Z,7.35
2023-05-21T15:42:58.529Z,7.45
2023-05-21T15:45:25.550Z,6.60
2023-05-21T15:47:52.101Z,9.07
2023-05-21T15:50:18.628Z,6.78
2023-05-21T15:52:45.113Z,7.50
2023-05-21T15:55:11.710Z,8.57
2023-05-21T15:57:38.558Z,7.00
2023-05-21T16:00:06.301Z,8.63
2023-05-21T16:02:33.349Z,8.45
2023-05-21T16:04:59.821Z,7.13
2023-05-21T16:07:28.512Z,8.23
2023-05-21T16:09:55.237Z,7.63
2023-05-21T16:12:24.029Z,6.85
2023-05-21T16:14:50.578Z,9.07
2023-05-21T16:17:19.879Z,7.63
2023-05-21T16:19:47.699Z,6.72
2023-05-21T16:22:15.897Z,5.88
2023-05-21T16:24:42.552Z,7.05
2023-05-21T16:27:09.072Z,7.38
2023-05-21T16:29:35.544Z,7.65
2023-05-21T16:32:02.441Z,7.03
2023-05-21T16:34:29.292Z,6.90
2023-05-21T16:36:56.158Z,6.40
2023-05-21T16:39:22.665Z,7.22
2023-05-21T16:41:49.485Z,8.30
2023-05-21T16:44:16.576Z,7.82
2023-05-21T16:46:43.041Z,6.30
2023-05-21T16:49:10.252Z,6.30
2023-05-21T16:51:36.975Z,7.45
2023-05-21T16:54:04.725Z,8.52
2023-05-21T16:56:31.266Z,6.50
2023-05-21T16:58:57.984Z,7.32
2023-05-21T17:01:24.660Z,8.50
2023-05-21T17:03:51.353Z,6.47
2023-05-21T17:06:18.005Z,6.72
2023-05-21T17:08:45.876Z,7.28
2023-05-21T17:11:12.432Z,7.53
2023-05-21T17:13:39.179Z,6.80
2023-05-21T17:16:06.044Z,6.82
2023-05-21T17:18:32.883Z,7.18
2023-05-21T17:20:59.384Z,6.20
2023-05-21T17:23:25.841Z,9.35
2023-05-21T17:25:53.671Z,9.02
2023-05-21T17:28:20.153Z,8.00
2023-05-21T17:30:49.873Z,7.95
2023-05-21T17:33:16.884Z,7.57
2023-05-21T17:35:44.076Z,8.13
2023-05-21T17:38:11.431Z,7.50
2023-05-21T17:40:37.917Z,8.40
2023-05-21T17:43:05.060Z,7.40
2023-05-21T17:45:32.117Z,7.10
2023-05-21T17:48:00.516Z,7.55
2023-05-21T17:50:30.764Z,7.18
2023-05-21T17:52:57.677Z,7.22
2023-05-21T17:55:27.341Z,6.50
2023-05-21T17:57:54.126Z,7.18
2023-05-21T18:00:20.936Z,6.80
2023-05-21T18:02:47.534Z,6.88
2023-05-21T18:05:14.396Z,5.97
2023-05-21T18:07:41.314Z,6.50
2023-05-21T18:10:08.189Z,6.88
2023-05-21T18:12:35.470Z,6.75
2023-05-21T18:15:02.276Z,6.78
2023-05-21T18:17:29.052Z,7.18
2023-05-21T18:19:55.562Z,6.80
2023-05-21T18:22:22.334Z,6.45
2023-05-21T18:24:49.590Z,8.45
2023-05-21T18:27:16.352Z,6.95
2023-05-21T18:29:42.812Z,6.50
2023-05-21T18:32:10.943Z,6.90
2023-05-21T18:34:37.461Z,6.60
2023-05-21T18:37:04.913Z,7.40
2023-05-21T18:39:31.335Z,6.20
2023-05-21T18:42:12.140Z,7.00
2023-05-21T18:44:47.577Z,6.40
2023-05-21T18:47:15.694Z,6.63
2023-05-21T18:49:42.331Z,7.10
2023-05-21T18:52:09.172Z,6.90
2023-05-21T18:54:35.730Z,6.97
2023-05-21T18:57:02.444Z,9.07
2023-05-21T18:59:29.597Z,6.43
2023-05-21T19:01:56.908Z,7.03
2023-05-21T19:04:23.520Z,6.88
2023-05-21T19:06:50.084Z,7.43
2023-05-21T19:09:16.563Z,7.10
2023-05-21T19:11:43.110Z,8.07
2023-05-21T19:14:12.309Z,6.90
2023-05-21T19:16:40.678Z,8.20
2023-05-21T19:19:09.141Z,7.15
2023-05-21T19:21:36.244Z,6.90
2023-05-21T19:24:05.620Z,7.80
2023-05-21T19:26:32.713Z,8.35
2023-05-21T19:28:59.183Z,7.43
2023-05-21T19:31:25.773Z,8.63
2023-05-21T19:33:52.754Z,8.15
2023-05-21T19:36:21.133Z,7.13
2023-05-21T19:38:49.473Z,9.93
2023-05-21T19:41:17.798Z,9.65
2023-05-21T19:43:47.633Z,9.95
2023-05-21T19:46:18.168Z,8.07
2023-05-21T19:48:47.781Z,7.78
2023-05-21T19:51:14.331Z,9.77
2023-05-21T19:53:42.740Z,8.15
2023-05-21T19:56:09.473Z,8.98
2023-05-21T19:58:36.248Z,9.23
2023-05-21T20:01:03.489Z,9.35
2023-05-21T20:03:36.026Z,8.10
2023-05-21T20:06:03.361Z,9.95
2023-05-21T20:08:33.121Z,8.05
2023-05-21T20:11:02.634Z,8.82
2023-05-21T20:13:29.522Z,7.53
2023-05-21T20:15:57.100Z,8.07
2023-05-21T20:18:25.412Z,7.95
2023-05-21T20:20:53.197Z,7.88
2023-05-21T20:23:19.653Z,8.57
2023-05-21T20:25:46.489Z,8.55
2023-05-21T20:28:13.049Z,8.15
2023-05-21T20:30:58.060Z,8.40
2023-05-21T20:33:28.119Z,7.93
2023-05-21T20:35:54.665Z,8.00
2023-05-21T20:38:21.289Z,7.85
2023-05-21T20:40:50.193Z,8.13
2023-05-21T20:43:19.669Z,7.60
2023-05-21T20:45:49.848Z,7.72
2023-05-21T20:48:16.793Z,7.63
2023-05-21T20:50:44.199Z,8.52
2023-05-21T20:53:12.385Z,7.75
2023-05-21T20:55:44.419Z,8.52
2023-05-21T20:58:11.652Z,7.70
2023-05-21T21:00:41.819Z,10.68
2023-05-21T21:03:11.424Z,8.80
2023-05-21T21:05:40.021Z,8.43
2023-05-21T21:08:08.467Z,10.70
2023-05-21T21:10:36.099Z,9.40
2023-05-21T21:13:03.459Z,9.20
2023-05-21T21:15:31.197Z,9.50
2023-05-21T21:17:58.163Z,9.63
2023-05-21T21:20:24.777Z,8.85
2023-05-21T21:22:53.556Z,8.73
2023-05-21T21:25:20.646Z,9.77
2023-05-21T21:27:49.462Z,9.75
2023-05-21T21:30:16.368Z,10.63
2023-05-21T21:32:43.210Z,12.00
2023-05-21T21:35:10.343Z,11.35
2023-05-21T21:37:36.885Z,12.43
2023-05-21T21:40:03.649Z,10.00
2023-05-21T21:42:30.382Z,10.95
2023-05-21T21:44:56.994Z,11.70
2023-05-21T21:47:23.571Z,10.07
2023-05-21T21:49:50.095Z,9.25
2023-05-21T21:52:17.906Z,9.32
2023-05-21T21:54:44.626Z,8.90
2023-05-21T21:57:11.370Z,9.50
2023-05-21T21:59:38.662Z,9.57
2023-05-21T22:02:06.024Z,10.13
2023-05-21T22:04:32.679Z,12.00
2023-05-21T22:06:59.221Z,9.02
2023-05-21T22:09:26.141Z,9.00
2023-05-21T22:11:53.466Z,8.85
2023-05-21T22:14:22.125Z,9.65
2023-05-21T22:16:48.857Z,10.13
2023-05-21T22:19:18.477Z,9.50
2023-05-21T22:21:46.419Z,8.93
2023-05-21T22:24:24.090Z,10.50
2023-05-21T22:26:57.968Z,9.75
2023-05-21T22:29:26.905Z,9.15
2023-05-21T22:31:54.159Z,8.80
2023-05-21T22:34:23.036Z,8.77
2023-05-21T22:36:51.608Z,9.88
2023-05-21T22:39:18.368Z,8.68
2023-05-21T22:41:45.974Z,10.27
2023-05-21T22:44:16.243Z,9.57
2023-05-21T22:46:43.870Z,9.05
2023-05-21T22:49:10.731Z,9.07
2023-05-21T22:51:39.895Z,9.23
2023-05-21T22:54:06.609Z,9.20
2023-05-21T22:56:35.792Z,9.35
2023-05-21T22:59:03.758Z,9.30
2023-05-21T23:01:32.672Z,10.27
2023-05-21T23:03:59.840Z,10.02
2023-05-21T23:06:26.306Z,9.90
2023-05-21T23:08:53.037Z,10.63
2023-05-21T23:11:19.545Z,11.30
2023-05-21T23:13:46.352Z,11.32
2023-05-21T23:16:12.975Z,9.73
2023-05-21T23:18:43.742Z,10.55
2023-05-21T23:21:10.745Z,10.65
2023-05-21T23:23:38.565Z,11.60
2023-05-21T23:26:05.477Z,10.30
2023-05-21T23:28:33.694Z,9.98
2023-05-21T23:31:00.224Z,10.25
2023-05-21T23:33:27.209Z,10.50
2023-05-21T23:35:56.930Z,10.20
2023-05-21T23:38:24.874Z,9.80
2023-05-21T23:40:51.382Z,10.95
2023-05-21T23:43:18.167Z,12.00
2023-05-21T23:45:45.210Z,10.93
2023-05-21T23:48:14.522Z,11.00
2023-05-21T23:50:41.352Z,11.27
2023-05-21T23:53:08.268Z,11.80
2023-05-21T23:55:37.425Z,10.05
2023-05-21T23:58:04.240Z,10.65
